Weather at Portland International Airport

Public forecast

Using degrees Fahrenheit for public forecast. Weather courtesy of forecast.io.

Current aviation weather report (METAR) for Portland International Airport

Report is more than 6 hours old.

Retrieved 2022/09/17 18:53 UTC (18 days ago):

KPDX 171853Z 31006KT 10SM FEW015 BKN250 17/11 A2981 RMK AO2 SLP093 T01670106

Aviation forecast (TAF) for Portland International Airport

Forecast is more than 12 hours old.

Retrieved 2022/09/17 18:22 UTC (18 days ago):

TAF KPDX 171720Z 1718/1818 VRB03KT P6SM BKN015 FM171900 31004KT P6SM FEW025 BKN200 FM180300 31003KT P6SM VCSH BKN080 BKN150 FM180900 VRB03KT P6SM -SHRA SCT040 OVC080 FM181500 VRB04KT P6SM VCSH FEW030 BKN050